sensor_id;sensor_type;location;lat;lon;timestamp;pressure;altitude;pressure_sealevel;temperature;humidity
27840;BME280;15207;42.182;24.308;2023-09-19T00:01:07;99673.56;;;14.36;100.00
27840;BME280;15207;42.182;24.308;2023-09-19T00:03:37;99666.59;;;14.23;99.57
27840;BME280;15207;42.182;24.308;2023-09-19T00:06:06;99660.91;;;14.26;99.63
27840;BME280;15207;42.182;24.308;2023-09-19T00:08:35;99661.97;;;14.45;98.36
27840;BME280;15207;42.182;24.308;2023-09-19T00:11:00;99662.16;;;14.63;96.86
27840;BME280;15207;42.182;24.308;2023-09-19T00:13:27;99664.03;;;14.83;96.54
27840;BME280;15207;42.182;24.308;2023-09-19T00:15:54;99661.50;;;14.91;96.56
27840;BME280;15207;42.182;24.308;2023-09-19T00:18:20;99658.41;;;15.05;95.42
27840;BME280;15207;42.182;24.308;2023-09-19T00:20:47;99651.72;;;15.00;95.44
27840;BME280;15207;42.182;24.308;2023-09-19T00:23:16;99657.97;;;15.00;95.65
27840;BME280;15207;42.182;24.308;2023-09-19T00:25:42;99657.25;;;14.88;96.40
27840;BME280;15207;42.182;24.308;2023-09-19T00:28:07;99660.38;;;14.84;96.59
27840;BME280;15207;42.182;24.308;2023-09-19T00:30:33;99655.66;;;14.76;95.88
27840;BME280;15207;42.182;24.308;2023-09-19T00:32:59;99654.38;;;14.70;94.29
27840;BME280;15207;42.182;24.308;2023-09-19T00:35:25;99657.59;;;14.44;94.84
27840;BME280;15207;42.182;24.308;2023-09-19T00:37:52;99653.16;;;14.43;95.58
27840;BME280;15207;42.182;24.308;2023-09-19T00:40:17;99658.16;;;14.48;95.17
27840;BME280;15207;42.182;24.308;2023-09-19T00:42:46;99650.72;;;14.30;95.11
27840;BME280;15207;42.182;24.308;2023-09-19T00:45:13;99654.41;;;14.19;94.36
27840;BME280;15207;42.182;24.308;2023-09-19T00:47:41;99643.84;;;14.06;96.05
27840;BME280;15207;42.182;24.308;2023-09-19T00:50:07;99644.56;;;14.08;96.35
27840;BME280;15207;42.182;24.308;2023-09-19T00:52:34;99647.03;;;13.90;96.83
27840;BME280;15207;42.182;24.308;2023-09-19T00:55:02;99643.22;;;13.93;96.06
27840;BME280;15207;42.182;24.308;2023-09-19T00:57:29;99637.59;;;13.96;95.73
27840;BME280;15207;42.182;24.308;2023-09-19T00:59:54;99637.28;;;13.89;96.05
27840;BME280;15207;42.182;24.308;2023-09-19T01:02:21;99638.22;;;13.88;95.87
27840;BME280;15207;42.182;24.308;2023-09-19T01:04:47;99650.06;;;13.66;96.91
27840;BME280;15207;42.182;24.308;2023-09-19T01:07:12;99651.50;;;13.48;98.08
27840;BME280;15207;42.182;24.308;2023-09-19T01:09:41;99645.63;;;13.22;99.20
27840;BME280;15207;42.182;24.308;2023-09-19T01:12:06;99648.66;;;13.29;99.57
27840;BME280;15207;42.182;24.308;2023-09-19T01:14:36;99642.63;;;13.36;99.38
27840;BME280;15207;42.182;24.308;2023-09-19T01:17:09;99638.41;;;13.44;99.34
27840;BME280;15207;42.182;24.308;2023-09-19T01:30:43;99632.47;;;14.02;99.52
27840;BME280;15207;42.182;24.308;2023-09-19T01:33:10;99631.81;;;14.10;99.07
27840;BME280;15207;42.182;24.308;2023-09-19T01:35:39;99632.25;;;14.15;98.28
27840;BME280;15207;42.182;24.308;2023-09-19T01:38:07;99633.41;;;14.23;98.01
27840;BME280;15207;42.182;24.308;2023-09-19T01:40:41;99627.16;;;14.22;97.69
27840;BME280;15207;42.182;24.308;2023-09-19T01:43:19;99633.16;;;13.95;96.00
27840;BME280;15207;42.182;24.308;2023-09-19T01:51:06;99623.59;;;14.12;97.77
27840;BME280;15207;42.182;24.308;2023-09-19T01:53:51;99624.16;;;14.15;97.53
27840;BME280;15207;42.182;24.308;2023-09-19T01:56:30;99620.75;;;14.13;97.69
27840;BME280;15207;42.182;24.308;2023-09-19T01:59:02;99624.16;;;14.15;97.20
27840;BME280;15207;42.182;24.308;2023-09-19T02:01:31;99619.34;;;14.09;97.03
27840;BME280;15207;42.182;24.308;2023-09-19T02:03:58;99618.06;;;14.13;97.22
27840;BME280;15207;42.182;24.308;2023-09-19T02:06:23;99626.41;;;14.10;97.06
27840;BME280;15207;42.182;24.308;2023-09-19T02:08:50;99628.16;;;14.11;96.70
27840;BME280;15207;42.182;24.308;2023-09-19T02:11:15;99619.47;;;14.08;96.89
27840;BME280;15207;42.182;24.308;2023-09-19T02:13:41;99614.25;;;14.06;97.25
27840;BME280;15207;42.182;24.308;2023-09-19T02:16:07;99627.38;;;13.99;97.67
27840;BME280;15207;42.182;24.308;2023-09-19T02:18:34;99619.56;;;13.96;98.01
27840;BME280;15207;42.182;24.308;2023-09-19T02:21:01;99614.75;;;13.90;98.64
27840;BME280;15207;42.182;24.308;2023-09-19T02:23:27;99622.69;;;13.92;98.58
27840;BME280;15207;42.182;24.308;2023-09-19T02:25:56;99617.13;;;13.83;98.25
27840;BME280;15207;42.182;24.308;2023-09-19T02:28:29;99622.25;;;13.44;98.21
27840;BME280;15207;42.182;24.308;2023-09-19T02:30:57;99625.56;;;13.47;99.09
27840;BME280;15207;42.182;24.308;2023-09-19T02:33:23;99625.94;;;13.43;99.06
27840;BME280;15207;42.182;24.308;2023-09-19T02:35:48;99612.81;;;13.28;100.00
27840;BME280;15207;42.182;24.308;2023-09-19T02:38:14;99624.81;;;13.24;100.00
27840;BME280;15207;42.182;24.308;2023-09-19T02:40:43;99614.97;;;13.34;100.00
27840;BME280;15207;42.182;24.308;2023-09-19T02:43:09;99613.56;;;13.30;100.00
27840;BME280;15207;42.182;24.308;2023-09-19T02:45:35;99615.91;;;13.23;100.00
27840;BME280;15207;42.182;24.308;2023-09-19T02:48:00;99616.63;;;13.26;100.00
27840;BME280;15207;42.182;24.308;2023-09-19T02:50:27;99614.81;;;13.26;100.00
27840;BME280;15207;42.182;24.308;2023-09-19T02:52:53;99616.25;;;13.30;100.00
27840;BME280;15207;42.182;24.308;2023-09-19T02:55:19;99622.22;;;13.34;100.00
27840;BME280;15207;42.182;24.308;2023-09-19T02:57:48;99620.31;;;13.25;100.00
27840;BME280;15207;42.182;24.308;2023-09-19T03:00:14;99614.81;;;13.26;100.00
27840;BME280;15207;42.182;24.308;2023-09-19T03:02:39;99623.56;;;13.07;100.00
27840;BME280;15207;42.182;24.308;2023-09-19T03:05:06;99620.25;;;12.82;100.00
27840;BME280;15207;42.182;24.308;2023-09-19T03:07:32;99609.47;;;12.93;100.00
27840;BME280;15207;42.182;24.308;2023-09-19T03:09:58;99614.44;;;12.98;100.00
27840;BME280;15207;42.182;24.308;2023-09-19T03:12:25;99608.81;;;13.01;100.00
27840;BME280;15207;42.182;24.308;2023-09-19T03:14:51;99608.38;;;12.96;100.00
27840;BME280;15207;42.182;24.308;2023-09-19T03:17:16;99608.84;;;12.90;100.00
27840;BME280;15207;42.182;24.308;2023-09-19T03:19:42;99608.59;;;12.93;100.00
27840;BME280;15207;42.182;24.308;2023-09-19T03:22:07;99601.88;;;12.99;100.00
27840;BME280;15207;42.182;24.308;2023-09-19T03:24:33;99601.00;;;12.98;100.00
27840;BME280;15207;42.182;24.308;2023-09-19T03:27:01;99605.50;;;12.98;100.00
27840;BME280;15207;42.182;24.308;2023-09-19T03:29:26;99605.44;;;12.88;100.00
27840;BME280;15207;42.182;24.308;2023-09-19T03:31:52;99603.53;;;12.78;100.00
27840;BME280;15207;42.182;24.308;2023-09-19T03:34:19;99604.59;;;12.87;100.00
27840;BME280;15207;42.182;24.308;2023-09-19T03:36:46;99601.06;;;12.87;100.00
27840;BME280;15207;42.182;24.308;2023-09-19T03:39:11;99604.75;;;12.86;100.00
27840;BME280;15207;42.182;24.308;2023-09-19T03:41:36;99606.31;;;12.88;100.00
27840;BME280;15207;42.182;24.308;2023-09-19T03:44:02;99600.00;;;12.78;100.00
27840;BME280;15207;42.182;24.308;2023-09-19T03:46:28;99611.91;;;12.64;100.00
27840;BME280;15207;42.182;24.308;2023-09-19T03:48:54;99609.38;;;12.83;100.00
27840;BME280;15207;42.182;24.308;2023-09-19T03:51:20;99612.00;;;12.74;100.00
27840;BME280;15207;42.182;24.308;2023-09-19T03:53:45;99615.78;;;12.71;100.00
27840;BME280;15207;42.182;24.308;2023-09-19T03:56:12;99614.75;;;12.83;100.00
27840;BME280;15207;42.182;24.308;2023-09-19T03:58:37;99617.84;;;12.67;100.00
27840;BME280;15207;42.182;24.308;2023-09-19T04:01:05;99627.53;;;12.59;100.00
27840;BME280;15207;42.182;24.308;2023-09-19T04:03:33;99623.81;;;12.27;100.00
27840;BME280;15207;42.182;24.308;2023-09-19T04:06:15;99626.28;;;12.07;100.00
27840;BME280;15207;42.182;24.308;2023-09-19T04:08:41;99623.09;;;12.25;100.00
27840;BME280;15207;42.182;24.308;2023-09-19T04:11:06;99620.78;;;12.32;100.00
27840;BME280;15207;42.182;24.308;2023-09-19T04:13:32;99620.31;;;12.15;100.00
27840;BME280;15207;42.182;24.308;2023-09-19T04:15:57;99624.28;;;12.32;100.00
27840;BME280;15207;42.182;24.308;2023-09-19T04:18:23;99624.66;;;12.39;100.00
27840;BME280;15207;42.182;24.308;2023-09-19T04:20:52;99624.78;;;12.49;100.00
27840;BME280;15207;42.182;24.308;2023-09-19T04:23:17;99623.97;;;12.69;100.00
27840;BME280;15207;42.182;24.308;2023-09-19T04:25:47;99627.59;;;12.80;100.00
27840;BME280;15207;42.182;24.308;2023-09-19T04:28:14;99632.38;;;12.76;100.00
27840;BME280;15207;42.182;24.308;2023-09-19T04:30:41;99622.09;;;12.81;100.00
27840;BME280;15207;42.182;24.308;2023-09-19T04:33:07;99623.81;;;12.82;100.00
27840;BME280;15207;42.182;24.308;2023-09-19T04:35:33;99620.53;;;13.00;100.00
27840;BME280;15207;42.182;24.308;2023-09-19T04:37:59;99619.44;;;13.03;100.00
27840;BME280;15207;42.182;24.308;2023-09-19T04:40:25;99617.59;;;13.03;100.00
27840;BME280;15207;42.182;24.308;2023-09-19T04:42:55;99622.72;;;13.06;100.00
27840;BME280;15207;42.182;24.308;2023-09-19T04:45:25;99614.38;;;13.09;100.00
27840;BME280;15207;42.182;24.308;2023-09-19T04:47:54;99622.78;;;13.38;100.00
27840;BME280;15207;42.182;24.308;2023-09-19T04:50:21;99616.16;;;13.42;100.00
27840;BME280;15207;42.182;24.308;2023-09-19T04:52:51;99619.56;;;13.44;100.00
27840;BME280;15207;42.182;24.308;2023-09-19T04:55:18;99621.09;;;13.58;100.00
27840;BME280;15207;42.182;24.308;2023-09-19T04:57:48;99623.53;;;13.61;100.00
27840;BME280;15207;42.182;24.308;2023-09-19T05:00:18;99622.22;;;13.55;100.00
27840;BME280;15207;42.182;24.308;2023-09-19T05:02:50;99619.25;;;13.58;100.00
27840;BME280;15207;42.182;24.308;2023-09-19T05:05:17;99621.84;;;13.70;100.00
27840;BME280;15207;42.182;24.308;2023-09-19T05:07:44;99619.09;;;13.81;100.00
27840;BME280;15207;42.182;24.308;2023-09-19T05:10:10;99619.75;;;14.05;100.00
27840;BME280;15207;42.182;24.308;2023-09-19T05:12:37;99628.84;;;14.13;100.00
27840;BME280;15207;42.182;24.308;2023-09-19T05:15:06;99626.47;;;14.20;100.00
27840;BME280;15207;42.182;24.308;2023-09-19T05:17:33;99628.59;;;14.26;100.00
27840;BME280;15207;42.182;24.308;2023-09-19T05:19:59;99628.91;;;14.33;100.00
27840;BME280;15207;42.182;24.308;2023-09-19T05:22:30;99623.72;;;14.61;100.00
27840;BME280;15207;42.182;24.308;2023-09-19T05:24:58;99631.28;;;14.97;100.00
27840;BME280;15207;42.182;24.308;2023-09-19T05:27:23;99633.28;;;15.15;100.00
27840;BME280;15207;42.182;24.308;2023-09-19T05:29:49;99626.28;;;15.32;100.00
27840;BME280;15207;42.182;24.308;2023-09-19T05:32:16;99615.56;;;15.60;99.12
27840;BME280;15207;42.182;24.308;2023-09-19T05:34:44;99627.94;;;16.00;97.22
27840;BME280;15207;42.182;24.308;2023-09-19T05:37:10;99629.72;;;16.20;95.85
27840;BME280;15207;42.182;24.308;2023-09-19T05:39:35;99629.94;;;16.55;94.05
27840;BME280;15207;42.182;24.308;2023-09-19T05:42:02;99621.00;;;16.90;92.03
27840;BME280;15207;42.182;24.308;2023-09-19T05:44:28;99623.75;;;16.99;90.99
27840;BME280;15207;42.182;24.308;2023-09-19T05:46:54;99627.97;;;17.11;91.03
27840;BME280;15207;42.182;24.308;2023-09-19T05:49:22;99624.56;;;17.27;88.48
27840;BME280;15207;42.182;24.308;2023-09-19T05:51:47;99614.97;;;17.60;86.99
27840;BME280;15207;42.182;24.308;2023-09-19T05:54:13;99605.97;;;17.59;87.33
27840;BME280;15207;42.182;24.308;2023-09-19T05:56:38;99604.06;;;17.78;85.85
27840;BME280;15207;42.182;24.308;2023-09-19T05:59:04;99611.78;;;17.99;83.73
27840;BME280;15207;42.182;24.308;2023-09-19T06:01:30;99603.84;;;18.06;83.77
27840;BME280;15207;42.182;24.308;2023-09-19T06:03:58;99601.47;;;18.37;80.46
27840;BME280;15207;42.182;24.308;2023-09-19T06:06:25;99601.38;;;18.81;78.77
27840;BME280;15207;42.182;24.308;2023-09-19T06:08:51;99601.09;;;18.41;78.61
27840;BME280;15207;42.182;24.308;2023-09-19T06:11:16;99604.00;;;18.47;80.05
27840;BME280;15207;42.182;24.308;2023-09-19T06:13:42;99604.34;;;18.44;79.32
27840;BME280;15207;42.182;24.308;2023-09-19T06:16:07;99597.09;;;18.53;78.47
27840;BME280;15207;42.182;24.308;2023-09-19T06:18:34;99594.03;;;18.48;75.33
27840;BME280;15207;42.182;24.308;2023-09-19T06:21:00;99599.97;;;18.68;74.16
27840;BME280;15207;42.182;24.308;2023-09-19T06:23:25;99601.19;;;18.90;73.68
27840;BME280;15207;42.182;24.308;2023-09-19T06:25:53;99593.06;;;18.99;72.08
27840;BME280;15207;42.182;24.308;2023-09-19T06:28:19;99590.84;;;19.02;71.50
27840;BME280;15207;42.182;24.308;2023-09-19T06:30:49;99585.59;;;18.93;71.43
27840;BME280;15207;42.182;24.308;2023-09-19T06:33:15;99598.13;;;18.69;73.27
27840;BME280;15207;42.182;24.308;2023-09-19T06:35:41;99595.06;;;18.72;73.59
27840;BME280;15207;42.182;24.308;2023-09-19T06:38:07;99594.41;;;18.95;74.04
27840;BME280;15207;42.182;24.308;2023-09-19T06:40:34;99583.09;;;19.16;74.07
27840;BME280;15207;42.182;24.308;2023-09-19T06:42:59;99579.88;;;19.04;75.05
27840;BME280;15207;42.182;24.308;2023-09-19T06:45:27;99585.78;;;18.91;74.75
27840;BME280;15207;42.182;24.308;2023-09-19T06:47:53;99581.69;;;19.03;74.66
27840;BME280;15207;42.182;24.308;2023-09-19T06:50:23;99579.69;;;19.14;73.04
27840;BME280;15207;42.182;24.308;2023-09-19T06:52:53;99579.50;;;19.15;71.98
27840;BME280;15207;42.182;24.308;2023-09-19T06:55:20;99583.22;;;19.39;70.08
27840;BME280;15207;42.182;24.308;2023-09-19T06:57:48;99580.50;;;19.31;71.15
27840;BME280;15207;42.182;24.308;2023-09-19T07:00:14;99577.81;;;19.14;72.26
27840;BME280;15207;42.182;24.308;2023-09-19T07:02:59;99583.09;;;19.16;73.45
27840;BME280;15207;42.182;24.308;2023-09-19T07:05:30;99567.78;;;19.23;75.16
27840;BME280;15207;42.182;24.308;2023-09-19T07:07:59;99583.38;;;19.38;74.48
27840;BME280;15207;42.182;24.308;2023-09-19T07:10:26;99581.97;;;19.67;72.39
27840;BME280;15207;42.182;24.308;2023-09-19T07:13:02;99575.25;;;19.94;72.24
27840;BME280;15207;42.182;24.308;2023-09-19T07:15:29;99578.63;;;20.05;71.45
27840;BME280;15207;42.182;24.308;2023-09-19T07:18:04;99572.03;;;19.99;72.30
27840;BME280;15207;42.182;24.308;2023-09-19T07:20:30;99575.13;;;19.79;71.70
27840;BME280;15207;42.182;24.308;2023-09-19T07:22:58;99570.53;;;19.88;72.57
27840;BME280;15207;42.182;24.308;2023-09-19T07:25:30;99580.28;;;20.14;71.86
27840;BME280;15207;42.182;24.308;2023-09-19T07:27:56;99573.66;;;20.48;69.25
27840;BME280;15207;42.182;24.308;2023-09-19T07:30:21;99578.44;;;20.38;70.48
27840;BME280;15207;42.182;24.308;2023-09-19T07:32:47;99569.13;;;20.64;69.63
27840;BME280;15207;42.182;24.308;2023-09-19T07:35:13;99565.88;;;20.37;69.94
27840;BME280;15207;42.182;24.308;2023-09-19T07:37:40;99563.38;;;19.87;72.31
27840;BME280;15207;42.182;24.308;2023-09-19T07:40:06;99560.97;;;19.92;72.64
27840;BME280;15207;42.182;24.308;2023-09-19T07:42:38;99555.84;;;20.38;70.29
27840;BME280;15207;42.182;24.308;2023-09-19T07:45:07;99551.09;;;20.08;71.67
27840;BME280;15207;42.182;24.308;2023-09-19T07:47:34;99547.22;;;19.94;71.76
27840;BME280;15207;42.182;24.308;2023-09-19T07:50:01;99545.75;;;19.83;72.75
27840;BME280;15207;42.182;24.308;2023-09-19T07:52:28;99540.75;;;20.58;69.42
27840;BME280;15207;42.182;24.308;2023-09-19T07:54:54;99544.66;;;21.03;66.41
27840;BME280;15207;42.182;24.308;2023-09-19T07:57:19;99543.34;;;20.52;69.28
27840;BME280;15207;42.182;24.308;2023-09-19T07:59:45;99549.38;;;20.39;69.00
27840;BME280;15207;42.182;24.308;2023-09-19T08:02:11;99549.22;;;20.40;69.34
27840;BME280;15207;42.182;24.308;2023-09-19T08:04:45;99542.06;;;20.16;70.80
27840;BME280;15207;42.182;24.308;2023-09-19T08:07:14;99535.00;;;20.30;70.52
27840;BME280;15207;42.182;24.308;2023-09-19T08:09:39;99537.09;;;20.19;70.28
27840;BME280;15207;42.182;24.308;2023-09-19T08:12:06;99534.69;;;20.25;70.87
27840;BME280;15207;42.182;24.308;2023-09-19T08:14:36;99528.25;;;20.49;68.56
27840;BME280;15207;42.182;24.308;2023-09-19T08:17:01;99526.09;;;20.83;66.60
27840;BME280;15207;42.182;24.308;2023-09-19T08:19:27;99527.44;;;21.25;65.29
27840;BME280;15207;42.182;24.308;2023-09-19T08:21:57;99523.41;;;21.06;65.14
27840;BME280;15207;42.182;24.308;2023-09-19T08:24:27;99526.50;;;21.18;65.89
27840;BME280;15207;42.182;24.308;2023-09-19T08:26:55;99519.63;;;21.07;65.15
27840;BME280;15207;42.182;24.308;2023-09-19T08:29:21;99514.94;;;21.16;64.27
27840;BME280;15207;42.182;24.308;2023-09-19T08:31:59;99521.72;;;21.35;64.36
27840;BME280;15207;42.182;24.308;2023-09-19T08:34:25;99523.25;;;21.53;62.11
27840;BME280;15207;42.182;24.308;2023-09-19T08:36:54;99519.75;;;21.29;62.61
27840;BME280;15207;42.182;24.308;2023-09-19T08:39:26;99514.94;;;21.01;61.73
27840;BME280;15207;42.182;24.308;2023-09-19T08:41:58;99515.41;;;21.05;62.37
27840;BME280;15207;42.182;24.308;2023-09-19T08:44:27;99506.03;;;21.22;62.90
27840;BME280;15207;42.182;24.308;2023-09-19T08:47:03;99507.63;;;21.62;60.81
27840;BME280;15207;42.182;24.308;2023-09-19T08:54:51;99500.84;;;22.03;58.87
27840;BME280;15207;42.182;24.308;2023-09-19T08:57:19;99498.81;;;21.75;59.88
27840;BME280;15207;42.182;24.308;2023-09-19T08:59:48;99493.09;;;21.85;61.17
27840;BME280;15207;42.182;24.308;2023-09-19T09:02:15;99486.00;;;21.90;61.10
27840;BME280;15207;42.182;24.308;2023-09-19T09:04:41;99486.44;;;22.31;60.58
27840;BME280;15207;42.182;24.308;2023-09-19T09:07:11;99471.00;;;22.82;56.97
27840;BME280;15207;42.182;24.308;2023-09-19T09:09:38;99478.03;;;22.69;57.80
27840;BME280;15207;42.182;24.308;2023-09-19T09:12:14;99479.91;;;22.69;56.77
27840;BME280;15207;42.182;24.308;2023-09-19T09:14:50;99474.59;;;22.61;56.35
27840;BME280;15207;42.182;24.308;2023-09-19T09:17:17;99475.94;;;22.28;57.02
27840;BME280;15207;42.182;24.308;2023-09-19T09:19:47;99469.78;;;22.41;57.17
27840;BME280;15207;42.182;24.308;2023-09-19T09:22:13;99474.38;;;22.18;58.46
27840;BME280;15207;42.182;24.308;2023-09-19T09:24:54;99469.44;;;22.29;58.69
27840;BME280;15207;42.182;24.308;2023-09-19T09:27:23;99470.97;;;21.95;58.87
27840;BME280;15207;42.182;24.308;2023-09-19T09:29:51;99464.06;;;21.77;58.90
27840;BME280;15207;42.182;24.308;2023-09-19T09:32:27;99466.66;;;21.70;60.02
27840;BME280;15207;42.182;24.308;2023-09-19T09:34:59;99454.75;;;22.08;58.03
27840;BME280;15207;42.182;24.308;2023-09-19T09:37:25;99447.94;;;21.97;57.37
27840;BME280;15207;42.182;24.308;2023-09-19T09:39:52;99451.69;;;21.96;59.35
27840;BME280;15207;42.182;24.308;2023-09-19T09:42:33;99451.88;;;21.95;58.32
27840;BME280;15207;42.182;24.308;2023-09-19T09:45:20;99459.59;;;22.28;57.83
27840;BME280;15207;42.182;24.308;2023-09-19T09:47:58;99449.13;;;22.53;56.12
27840;BME280;15207;42.182;24.308;2023-09-19T09:50:32;99451.66;;;22.55;55.53
27840;BME280;15207;42.182;24.308;2023-09-19T09:53:35;99448.38;;;22.59;55.00
27840;BME280;15207;42.182;24.308;2023-09-19T09:56:06;99446.50;;;22.95;53.84
27840;BME280;15207;42.182;24.308;2023-09-19T09:58:51;99444.91;;;23.36;52.57
27840;BME280;15207;42.182;24.308;2023-09-19T10:01:24;99441.94;;;22.74;53.69
27840;BME280;15207;42.182;24.308;2023-09-19T10:03:56;99443.53;;;22.62;54.71
27840;BME280;15207;42.182;24.308;2023-09-19T10:06:22;99435.97;;;22.85;53.64
27840;BME280;15207;42.182;24.308;2023-09-19T10:09:09;99444.59;;;22.89;53.49
27840;BME280;15207;42.182;24.308;2023-09-19T10:11:47;99423.84;;;22.66;55.67
27840;BME280;15207;42.182;24.308;2023-09-19T10:14:25;99428.41;;;22.88;54.12
27840;BME280;15207;42.182;24.308;2023-09-19T10:16:58;99422.31;;;22.85;53.28
27840;BME280;15207;42.182;24.308;2023-09-19T10:19:41;99416.38;;;23.10;52.28
27840;BME280;15207;42.182;24.308;2023-09-19T10:22:12;99416.97;;;23.06;51.12
27840;BME280;15207;42.182;24.308;2023-09-19T10:24:47;99410.38;;;22.93;51.69
27840;BME280;15207;42.182;24.308;2023-09-19T10:27:12;99401.41;;;22.71;52.12
27840;BME280;15207;42.182;24.308;2023-09-19T10:29:43;99401.00;;;22.74;52.17
27840;BME280;15207;42.182;24.308;2023-09-19T10:32:10;99396.50;;;22.88;52.79
27840;BME280;15207;42.182;24.308;2023-09-19T10:34:43;99393.25;;;22.71;52.15
27840;BME280;15207;42.182;24.308;2023-09-19T10:37:10;99390.84;;;22.90;52.96
27840;BME280;15207;42.182;24.308;2023-09-19T10:39:39;99393.63;;;22.68;53.34
27840;BME280;15207;42.182;24.308;2023-09-19T10:42:06;99381.94;;;22.81;52.86
27840;BME280;15207;42.182;24.308;2023-09-19T10:44:34;99385.00;;;22.99;51.98
27840;BME280;15207;42.182;24.308;2023-09-19T10:47:03;99380.59;;;22.98;51.61
27840;BME280;15207;42.182;24.308;2023-09-19T10:49:32;99384.38;;;23.33;50.94
27840;BME280;15207;42.182;24.308;2023-09-19T10:51:58;99379.28;;;23.30;50.56
27840;BME280;15207;42.182;24.308;2023-09-19T10:54:29;99385.03;;;23.42;50.52
27840;BME280;15207;42.182;24.308;2023-09-19T10:56:58;99382.69;;;23.38;50.07
27840;BME280;15207;42.182;24.308;2023-09-19T10:59:25;99378.13;;;23.46;49.75
27840;BME280;15207;42.182;24.308;2023-09-19T11:01:56;99374.00;;;23.70;49.37
27840;BME280;15207;42.182;24.308;2023-09-19T11:04:30;99372.56;;;23.81;49.25
27840;BME280;15207;42.182;24.308;2023-09-19T11:09:52;99353.06;;;24.32;47.75
27840;BME280;15207;42.182;24.308;2023-09-19T11:14:54;99349.81;;;23.81;48.42
27840;BME280;15207;42.182;24.308;2023-09-19T11:30:48;99328.22;;;24.20;48.05
27840;BME280;15207;42.182;24.308;2023-09-19T11:33:27;99329.50;;;24.24;47.49
27840;BME280;15207;42.182;24.308;2023-09-19T11:46:34;99310.53;;;24.49;46.86
27840;BME280;15207;42.182;24.308;2023-09-19T11:49:16;99304.22;;;24.49;46.87
27840;BME280;15207;42.182;24.308;2023-09-19T11:51:46;99294.44;;;24.93;46.06
27840;BME280;15207;42.182;24.308;2023-09-19T11:54:13;99291.50;;;24.95;45.92
27840;BME280;15207;42.182;24.308;2023-09-19T11:56:43;99296.78;;;24.90;45.90
27840;BME280;15207;42.182;24.308;2023-09-19T11:59:10;99293.72;;;24.46;46.44
27840;BME280;15207;42.182;24.308;2023-09-19T12:01:38;99288.66;;;24.29;47.22
27840;BME280;15207;42.182;24.308;2023-09-19T12:04:11;99290.03;;;24.72;46.27
27840;BME280;15207;42.182;24.308;2023-09-19T12:06:36;99295.41;;;24.33;46.63
27840;BME280;15207;42.182;24.308;2023-09-19T12:09:04;99282.38;;;24.28;46.82
27840;BME280;15207;42.182;24.308;2023-09-19T12:11:42;99281.06;;;24.44;47.71
27840;BME280;15207;42.182;24.308;2023-09-19T12:14:09;99275.13;;;24.68;47.09
27840;BME280;15207;42.182;24.308;2023-09-19T12:16:35;99268.78;;;24.74;47.05
27840;BME280;15207;42.182;24.308;2023-09-19T12:19:21;99274.66;;;24.78;46.23
27840;BME280;15207;42.182;24.308;2023-09-19T12:21:56;99259.97;;;24.65;46.23
27840;BME280;15207;42.182;24.308;2023-09-19T12:24:24;99262.16;;;24.43;46.51
27840;BME280;15207;42.182;24.308;2023-09-19T12:26:52;99258.34;;;24.37;47.11
27840;BME280;15207;42.182;24.308;2023-09-19T12:29:21;99254.38;;;24.26;47.28
27840;BME280;15207;42.182;24.308;2023-09-19T12:31:50;99262.38;;;24.21;47.90
27840;BME280;15207;42.182;24.308;2023-09-19T12:34:31;99254.38;;;24.33;47.70
27840;BME280;15207;42.182;24.308;2023-09-19T12:37:16;99249.09;;;24.38;48.71
27840;BME280;15207;42.182;24.308;2023-09-19T12:39:49;99251.31;;;24.75;47.73
27840;BME280;15207;42.182;24.308;2023-09-19T12:42:17;99251.28;;;25.34;46.10
27840;BME280;15207;42.182;24.308;2023-09-19T12:44:46;99244.81;;;25.61;45.35
27840;BME280;15207;42.182;24.308;2023-09-19T12:47:15;99241.22;;;25.54;45.14
27840;BME280;15207;42.182;24.308;2023-09-19T12:50:31;99237.50;;;25.48;45.15
27840;BME280;15207;42.182;24.308;2023-09-19T12:52:48;99234.81;;;25.34;45.26
27840;BME280;15207;42.182;24.308;2023-09-19T12:55:27;99230.78;;;25.44;45.24
27840;BME280;15207;42.182;24.308;2023-09-19T12:58:11;99228.72;;;25.32;44.55
27840;BME280;15207;42.182;24.308;2023-09-19T13:00:38;99215.38;;;25.11;45.43
27840;BME280;15207;42.182;24.308;2023-09-19T13:06:00;99226.56;;;25.41;44.72
27840;BME280;15207;42.182;24.308;2023-09-19T13:11:14;99209.25;;;25.15;45.88
27840;BME280;15207;42.182;24.308;2023-09-19T13:13:45;99204.19;;;25.44;44.78
27840;BME280;15207;42.182;24.308;2023-09-19T13:16:14;99204.72;;;25.28;45.17
27840;BME280;15207;42.182;24.308;2023-09-19T13:18:55;99192.66;;;25.03;45.45
27840;BME280;15207;42.182;24.308;2023-09-19T13:21:32;99189.13;;;24.89;45.46
27840;BME280;15207;42.182;24.308;2023-09-19T13:24:24;99189.44;;;25.13;45.04
27840;BME280;15207;42.182;24.308;2023-09-19T13:26:55;99180.72;;;24.91;45.29
27840;BME280;15207;42.182;24.308;2023-09-19T13:29:21;99186.44;;;24.82;46.51
27840;BME280;15207;42.182;24.308;2023-09-19T13:31:47;99180.13;;;25.21;45.20
27840;BME280;15207;42.182;24.308;2023-09-19T13:34:13;99179.91;;;25.22;44.97
27840;BME280;15207;42.182;24.308;2023-09-19T13:36:41;99186.16;;;25.30;44.87
27840;BME280;15207;42.182;24.308;2023-09-19T13:39:07;99178.53;;;25.06;44.65
27840;BME280;15207;42.182;24.308;2023-09-19T13:41:35;99179.78;;;25.04;45.07
27840;BME280;15207;42.182;24.308;2023-09-19T13:44:05;99176.84;;;25.05;44.92
27840;BME280;15207;42.182;24.308;2023-09-19T13:46:30;99178.56;;;25.00;45.17
27840;BME280;15207;42.182;24.308;2023-09-19T13:48:58;99171.69;;;24.90;45.68
27840;BME280;15207;42.182;24.308;2023-09-19T13:51:26;99169.91;;;25.03;45.31
27840;BME280;15207;42.182;24.308;2023-09-19T13:53:51;99170.41;;;24.93;45.05